Historyczne dane pomiarowe

Dodano dane terminowe – wersja testowa.

Dane z okresu 1951-2019

Wersja bazy: 1.34 [2019-03-16, lista zmian], aktualizacja planowana na 2019-04-15

Dane meteo z obszaru Polski uzyskane na podstawie danych udostępnionych przez Instytut Meteorologii i Gospodarki Wodnej – Państwowy Instytut Badawczy.

 

Wybierz Datę:    

       

TemperaturaWilgotnośćWiatrCiśnienieOpadyŚniegCzas trwania zjawisk
 Stacja t tx tn tng RH VA  wxwx mslp ppp RRR   cm mm wxwxwxwxwxwxwx
1975-07-16 21.0 25.4 16.7- 69.8- 5.3 1.0---- 0.5------------
1975-07-17 15.8 21.8 8.5- 78.8- 5.0 0.7---- 0.0------------
1975-07-18 14.8 21.0 6.4- 84.3- 4.7 0.0---- 5.2------------
1975-07-19 16.4 23.7 11.7- 86.3- 7.7 0.7---- 16.8------------
1975-07-20 13.9 16.3 12.7- 92.3- 8.0 1.3---- 15.8------------
1975-07-21 13.0 13.9 11.9- 92.3- 8.0 3.7---- 4.5------------
1975-07-22 14.7 19.8 11.7- 91.0- 5.7 0.7---- 2.4------------
1975-07-23 15.7 25.1 8.5- 80.0- 5.7 1.0---- 1.9------------
1975-07-24 17.0 25.1 8.2- 76.8- 4.3 1.0---- 11.7------------
1975-07-25 13.2 20.2 11.7- 93.0- 8.0 1.7---- 46.7------------
1975-07-26 9.7 13.4 8.4- 90.0- 8.0 0.3---- 4.1------------
1975-07-27 10.9 15.0 7.5- 81.5- 7.7 3.0---- 0.7------------
1975-07-28 12.3 14.7 9.7- 90.5- 8.0 2.0---- 1.0------------
1975-07-29 16.9 22.1 13.3- 74.3- 4.3 1.7---- 0.0------------
1975-07-30 15.2 21.5 7.7- 80.0- 3.7 1.0---- 10.8------------
1975-07-31 16.0 20.9 12.7- 80.3- 4.3 0.7---- 0.0------------
1975-08-01 13.5 21.3 7.9- 88.5- 6.0 1.0---- 16.0------------
1975-08-02 14.1 20.9 9.7- 80.5- 7.7 2.7---- 0.4------------
1975-08-03 13.9 16.1 11.4- 90.8- 8.0 0.0---- 11.2------------
1975-08-04 15.2 19.6 11.2- 82.8- 3.7 2.7---- 20.3------------
1975-08-05 16.0 20.6 12.3- 83.8- 4.3 1.7---- 0.1------------
1975-08-06 16.0 22.1 10.5- 87.0- 5.7 1.0---- 4.0------------
1975-08-07 15.9 21.7 11.0- 84.8- 4.7 2.0---- 3.9------------
1975-08-08 17.0 23.6 9.5- 83.0- 4.3 1.3---- 0.0------------
1975-08-09 16.0 24.5 7.1- 77.3- 2.7 1.0---- 0.0------------
1975-08-10 16.0 25.3 8.3- 77.0- 3.7 1.0---- 0.0------------
1975-08-11 15.7 24.8 7.7- 79.8- 4.0 0.3---- 0.0------------
1975-08-12 16.3 26.0 9.7- 76.5- 4.3 0.3---- 0.6------------
1975-08-13 11.8 18.7 8.5- 81.3- 3.3 2.7---- 0.0------------
1975-08-14 9.3 20.2 0.2- 76.5- 2.7 1.3---- 0.0------------
340.2 ms

 

Źródłem pochodzenia danych jest Instytut Meteorologii i Gospodarki Wodnej – Państwowy Instytut Badawczy. Dane Instytutu Meteorologii i Gospodarki Wodnej – Państwowego Instytutu Badawczego zostały przetworzone.

Dane źródłowe można odnaleźć na stronie https://dane.imgw.pl